Weather observations for the past three days for
Cushing, Cushing Municipal Airport
Metric (Imperial)
Date Time (cdt) Wind (kph) Vis. (km) Weather Sky Cond. Temperature (ºC) Relative Humidity Wind Chill (°C) Heat Index (°C) Pressure Precipitation (cm)
Air Dwpt 6 hour altimeter (cm) sea level (mb) 1 hr 3 hr 6 hr
Max. Min.
10 10:55 N 17 16.09 NULL NULL 0 0 0% 76.4 0.0
10 10:35 N 17 16.09 NULL NULL 0 0 0% 0 0.0
10 10:15 N 17 16.09 Partly Cloudy SCT110 15.7 13.6 87% 0 0.0
10 09:55 N 7 16.09 Mostly Cloudy SCT044 SCT060 BKN120 0 0 0% 76.35 0.0 0.1
10 09:35 NE 6 16.09 Light Rain NULL 0 0 0% 0 0.0
10 09:15 Calm 16.09 NULL NULL 14.5 14 97% 76.25 0.0
10 08:55 Calm 0.00 NULL NULL 14.6 14 96% 0 0.0
10 07:15 Calm 0.00 NULL NULL 15.4 13 86% 0 0.0
10 06:35 NW 7 16.09 Fair CLR 0 0 0% 76.17 0.0
10 06:15 Calm 16.09 Fair CLR 0 0 0% 0 0.0
10 05:55 Calm 16.09 Fair CLR 15.3 12.8 85% 76.02 0.0
10 05:35 Calm 16.09 Fair CLR 14.9 13.5 91% 75.95 0.0
10 05:15 NE 7 16.09 Fair CLR 15.1 13.4 90% 75.95 0.0
10 04:55 N 9 16.09 Fair CLR 15.4 13.7 90% 75.95 0.0
10 04:35 N 7 16.09 Fair CLR 16.1 13.6 85% 75.95 0.0
10 04:15 N 15 16.09 Fair CLR 16 14.5 91% 75.95 0.0
10 03:55 N 9 16.09 Fair CLR 16.9 13.1 78% 75.87 0.0
10 03:35 Calm 16.09 Fair CLR 17.1 13 77% 75.82 0.0
10 03:15 S 11 16.09 Fair CLR 17.6 12.7 73% 75.79 0.0
10 02:55 S 13 16.09 Fair CLR 17.6 12.7 73% 75.77 0.0
10 02:35 SE 19 G 33 16.09 Fair CLR 17.6 12.3 71% 75.77 0.0
10 02:15 S 26 G 33 16.09 Fair CLR 16.4 12.8 79% 75.79 0.0
10 01:55 S 15 16.09 Partly Cloudy SCT110 15.7 13.8 89% 75.92 0.0
10 01:35 S 7 16.09 Mostly Cloudy BKN110 15.5 14.8 96% 76.02 0.0
10 01:15 Calm 16.09 Mostly Cloudy SCT050 SCT065 BKN120 15.5 14.9 96% 76.02 0.0
10 00:55 NW 11 16.09 Light Rain BKN060 BKN080 OVC090 16 14 27.5 15 88% 76.1 0.0 0.53 0.53
10 00:35 S 7 11.27 Thunderstorm Light Rain in Vicinity SCT031 BKN060 OVC070 15.1 14.6 97% 76.2 0.0 0.51
10 00:15 W 22 G 54 6.44 Thunderstorm Heavy Rain SCT028 BKN075 OVC090 15.2 13.4 89% 76.23 0.0 0.33
09 23:55 W 28 16.09 Thunderstorm Light Rain in Vicinity SCT075 BKN090 OVC110 19.2 10.8 58% 76.12 0.0
09 23:35 N 20 16.09 Mostly Cloudy BKN110 20.6 8.2 45% 75.97 0.0
09 23:15 E 9 16.09 Light Rain SCT080 BKN100 22.2 6.6 37% 75.9 0.0
09 22:55 Calm 16.09 Thunderstorm SCT100 BKN120 21.9 7.1 39% 75.9 0.0
09 22:35 E 7 16.09 Thunderstorm in Vicinity CLR 23 6.1 34% 75.87 0.0
09 22:15 Calm 16.09 Fair CLR 22.5 7.4 38% 75.82 0.0
09 21:55 E 11 16.09 Fair CLR 21.7 8.7 43% 75.79 0.0
09 21:35 E 6 16.09 Fair CLR 22.1 8.6 42% 75.79 0.0
09 21:15 E 9 16.09 Fair CLR 22 8 41% 75.72 0.0
09 20:55 E 9 16.09 Fair CLR 22.9 7.3 37% 75.67 0.0
09 20:35 E 9 16.09 Fair CLR 24.1 6.9 33% 25 75.64 0.0
09 20:15 E 6 16.09 Fair CLR 24.7 6.7 32% 25 75.62 0.0
09 19:55 SE 7 16.09 Fair CLR 25.6 6.8 30% 26 75.64 0.0
09 19:35 E 7 16.09 Fair CLR 26.7 5.9 27% 26 75.62 0.0
09 19:15 SE 9 16.09 Fair CLR 27.2 4.8 24% 26 75.62 0.0
09 18:55 SE 17 16.09 Fair CLR 27.5 4.7 29.4 26.8 23% 26 75.62 0.0
09 18:35 SE 9 16.09 Fair CLR 28 4.2 22% 27 75.62 0.0
09 18:15 E 15 16.09 Fair CLR 28.4 3.4 20% 27 75.64 0.0
09 17:55 E 13 16.09 Fair CLR 28.5 2.8 19% 27 75.64 0.0
09 17:35 SE 15 16.09 Fair CLR 28.7 3.1 19% 27 75.64 0.0
09 17:15 SE 11 16.09 Fair CLR 28.7 2.6 19% 27 75.67 0.0
09 16:55 SE 13 16.09 Fair CLR 28.7 3.4 20% 27 75.67 0.0
09 16:35 SE 13 16.09 Fair CLR 28.8 3.5 20% 27 75.67 0.0
09 16:15 E 13 16.09 Fair CLR 29.2 5.3 22% 28 75.69 0.0
09 15:55 SE 13 16.09 Fair CLR 28.9 4.9 22% 27 75.72 0.0
09 15:35 S 7 16.09 Fair CLR 28.7 3.9 20% 27 75.72 0.0
09 15:15 SE 9 16.09 Fair CLR 29.1 5.3 22% 28 75.74 0.0
09 14:55 Calm 16.09 Fair CLR 28.5 2.4 19% 27 75.77 0.0
09 14:35 SE 9 16.09 Fair CLR 28.6 4.3 21% 27 75.79 0.0
09 14:15 SE 6 16.09 Fair CLR 28.7 4.6 21% 27 75.79 0.0
09 13:55 SE 6 16.09 Fair CLR 27.9 5.4 24% 27 75.79 0.0
09 13:35 E 6 16.09 Fair CLR 27.9 3.3 21% 27 75.82 0.0
09 13:15 SE 7 16.09 Fair CLR 27.2 5.7 25% 26 75.82 0.0
09 12:55 SE 6 16.09 Fair CLR 26.6 6.4 27.2 8.7 28% 26 75.84 0.0
09 12:35 S 7 16.09 Fair CLR 26.1 6.6 29% 26 75.84 0.0
09 12:15 SE 9 16.09 Fair CLR 26.6 8.3 31% 26 75.9 0.0
09 11:55 SE 11 16.09 Fair CLR 26.1 10.8 38% 26 75.9 0.0
09 11:35 Calm 16.09 Fair CLR 25.2 13.1 47% 26 75.92 0.0
09 11:15 SE 7 16.09 Fair CLR 24.6 12.5 47% 26 75.92 0.0
09 10:55 S 7 16.09 Fair CLR 23.3 13.5 54% 75.9 0.0
09 10:35 SE 6 16.09 Fair CLR 22.4 14.4 61% 75.87 0.0
09 10:15 Calm 16.09 Fair CLR 20.9 14.6 67% 75.87 0.0
09 09:55 E 6 16.09 Fair CLR 19.9 14.9 73% 75.87 0.0
09 09:35 Calm 16.09 Fair CLR 18.1 15 82% 75.87 0.0
09 09:15 Calm 16.09 Fair CLR 16.2 15.6 96% 75.87 0.0
09 08:55 Calm 16.09 Fair CLR 15 14.5 97% 75.87 0.0
09 08:35 Calm 16.09 Fair CLR 14.2 13.7 97% 75.87 0.0
09 08:15 Calm 16.09 Fair CLR 13.1 12.6 97% 75.84 0.0
09 07:55 Calm 16.09 Fair CLR 12.4 11.8 96% 75.82 0.0
09 07:35 Calm 11.27 Partly Cloudy SCT002 10.6 10.1 97% 75.82 0.0
09 07:15 Calm 0.80 Fog OVC002 9.5 9 97% 75.79 0.0
09 06:55 Calm 1.61 Fog/Mist OVC002 8.8 8.2 13.1 8.5 96% 75.77 0.0
09 06:35 Calm 0.40 Fog OVC002 9.2 8.7 97% 75.77 0.0
09 06:15 Calm 0.40 Fog OVC002 9.7 9.2 97% 75.77 0.0
09 05:55 Calm 1.61 Fog/Mist OVC002 9.5 9 97% 75.77 0.0
09 05:35 Calm 1.21 Fog/Mist OVC002 9.8 9.3 97% 75.77 0.0
09 05:15 Calm 0.80 Fog OVC002 10.2 9.7 97% 75.79 0.0
09 04:55 Calm 0.40 Fog OVC002 10 9.5 97% 75.79 0.0
09 04:35 Calm 1.21 Fog/Mist VV005 10.1 9.6 97% 75.79 0.0
09 04:15 Calm 2.41 Fog/Mist VV007 11.4 10.9 97% 75.79 0.0
09 03:55 Calm 6.44 Fog/Mist CLR 12.5 12 97% 75.79 0.0
09 03:35 Calm 11.27 Fair CLR 12.5 12 97% 75.79 0.0
09 03:15 Calm 16.09 Fair CLR 12.7 12.2 97% 75.79 0.0
09 02:55 Calm 16.09 Fair CLR 11.6 11.1 97% 75.82 0.0
09 02:35 W 6 16.09 Fair CLR 11.4 10.9 97% 75.82 0.0
09 02:15 Calm 16.09 Fair CLR 12.2 11.7 97% 75.82 0.0
09 01:55 Calm 16.09 Fair CLR 11.8 11.2 96% 75.82 0.0
09 01:35 Calm 16.09 Fair CLR 12.5 12 97% 75.82 0.0
09 01:15 Calm 16.09 Fair CLR 13.1 12.5 96% 75.82 0.0
09 00:55 Calm 16.09 Fair CLR 12.4 11.8 22.2 12.3 96% 75.84 0.0
09 00:35 Calm 16.09 Fair CLR 13 12.5 97% 75.84 0.0
09 00:15 Calm 16.09 Fair CLR 13 12.3 96% 75.84 0.0
08 23:55 Calm 16.09 Fair CLR 13.5 12.9 96% 75.84 0.0
08 23:35 Calm 16.09 Fair CLR 14 13.3 96% 75.87 0.0
08 23:15 Calm 16.09 Fair CLR 14.8 14.1 96% 75.84 0.0
08 22:55 Calm 16.09 Fair CLR 15.5 15 97% 75.82 0.0
08 22:35 Calm 16.09 Fair CLR 15.8 15 95% 75.82 0.0
08 22:15 Calm 16.09 Fair CLR 16 15.5 97% 75.77 0.0
08 21:55 Calm 16.09 Fair CLR 16.6 15.1 91% 75.77 0.0
08 21:35 Calm 16.09 Fair CLR 17.1 14 82% 75.72 0.0
08 21:15 E 6 16.09 Partly Cloudy SCT065 SCT085 SCT110 17.6 13.8 79% 75.69 0.0
08 20:55 SE 11 16.09 Overcast BKN065 OVC100 18.1 14 77% 75.67 0.0
08 20:35 Calm 16.09 Overcast SCT050 BKN060 OVC100 18.2 14.1 77% 75.64 0.0
08 20:15 SE 6 16.09 Overcast BKN060 OVC070 18.2 14.3 78% 75.62 0.0
08 19:55 E 6 16.09 Overcast BKN060 OVC070 18.3 14.5 79% 75.59 0.0
08 19:35 NE 11 16.09 Overcast SCT060 OVC080 18.4 14 76% 75.59 0.0
08 19:15 NE 20 16.09 Thunderstorm OVC090 19.3 14.2 72% 75.59 0.0
08 18:55 NE 13 16.09 Thunderstorm Light Rain in Vicinity SCT044 SCT065 OVC090 22.2 16.3 28.3 20.8 69% 75.51 0.0 0.03 0.03
08 18:35 SW 15 16.09 Mostly Cloudy BKN100 21.2 13.5 62% 75.46 0.0 0.03
08 18:15 W 17 G 30 16.09 Thunderstorm Light Rain in Vicinity SCT100 BKN110 21.4 16.6 74% 75.46 0.0 0.03
08 17:55 SW 19 16.09 Thunderstorm Light Rain SCT085 OVC110 23.9 15 58% 25 75.46 0.0
08 17:35 S 13 16.09 Thunderstorm in Vicinity SCT075 SCT085 BKN110 25.4 13.7 48% 26 75.44 0.0
08 17:15 SW 17 16.09 Fair CLR 26.2 13.1 44% 26 75.46 0.0
08 16:55 S 19 G 30 16.09 Fair CLR 28 13.6 41% 28 75.46 0.0
08 16:35 SW 19 G 28 16.09 Partly Cloudy SCT055 27.9 13.5 41% 28 75.49 0.0
08 16:15 SW 11 16.09 Fair CLR 27.7 13.6 42% 28 75.51 0.0
08 15:55 SW 15 G 26 16.09 Fair CLR 27.8 13.4 41% 28 75.54 0.0
08 15:35 SW 17 G 26 16.09 Partly Cloudy SCT050 27.6 13.6 42% 27 75.57 0.0
08 15:15 SW 19 G 28 16.09 Partly Cloudy SCT050 27.6 13.8 43% 27 75.59 0.0
08 14:55 SW 13 16.09 Partly Cloudy SCT050 26.8 12.8 42% 27 75.64 0.0
08 14:35 SW 20 16.09 Fair CLR 26.7 12.8 42% 27 75.67 0.0
08 14:15 SW 20 G 28 16.09 Fair CLR 26 12.6 43% 26 75.67 0.0
08 13:55 SW 22 G 33 16.09 Fair CLR 25.5 12 43% 26 75.69 0.0
08 13:35 SW 22 G 33 16.09 Fair CLR 25.8 11.5 41% 26 75.69 0.0
08 13:15 S 20 G 37 16.09 Fair CLR 25.3 10.9 40% 26 75.72 0.0
08 12:55 SW 20 G 28 16.09 Fair CLR 25.5 10.4 25.6 9.4 39% 26 75.74 0.0
08 12:35 S 26 G 33 16.09 Fair CLR 24.5 10.3 41% 25 75.79 0.0
08 12:15 S 22 G 30 16.09 Fair CLR 24 10.4 42% 25 75.79 0.0
08 11:55 S 24 G 31 16.09 Fair CLR 23.1 10.3 44% 75.84 0.0
08 11:35 S 22 G 33 16.09 Fair CLR 22.8 10.5 46% 75.87 0.0
08 11:15 SW 28 G 33 16.09 Fair CLR 22.5 9.9 45% 75.9 0.0
08 10:55 S 19 16.09 Fair CLR 22 9.7 46% 75.9 0.0
08 10:35 SW 24 G 35 16.09 Fair CLR 21.2 9.7 48% 75.92 0.0
08 10:15 SW 24 G 33 16.09 Fair CLR 20.5 9.9 51% 75.95 0.0
08 09:55 S 20 16.09 Fair CLR 19.5 10 54% 75.97 0.0
08 09:35 S 20 G 33 16.09 Fair CLR 18.6 9.6 56% 75.97 0.0
08 09:15 SW 24 G 30 16.09 Fair CLR 17.9 9.4 58% 76 0.0
08 08:55 S 15 G 26 16.09 Fair CLR 16.9 9.2 61% 76 0.0
08 08:35 S 11 16.09 Fair CLR 15.5 9.5 68% 76 0.0
08 08:15 S 13 16.09 Fair CLR 13.6 9.2 75% 76 0.0
08 07:55 S 11 16.09 Fair CLR 12.5 8.7 78% 76 0.0
08 07:35 S 11 16.09 Fair CLR 11.5 8.7 83% 76 0.0
08 07:15 S 9 16.09 Fair CLR 10.3 8.3 88% 75.97 0.0
08 06:55 S 9 16.09 Fair CLR 9.3 8 12.4 9.3 92% 8 76 0.0
08 06:35 S 9 16.09 Fair CLR 9.8 7.5 86% 9 75.97 0.0
08 06:15 SW 7 16.09 Fair CLR 9.6 7.6 87% 9 75.97 0.0
08 05:55 S 7 16.09 Fair CLR 10.2 7.1 81% 75.95 0.0
08 05:35 S 11 16.09 Fair CLR 11 7.1 77% 75.95 0.0
08 05:15 S 9 16.09 Fair CLR 11 7 77% 75.95 0.0
08 04:55 S 9 16.09 Fair CLR 10.9 6.9 77% 75.95 0.0
08 04:35 S 7 16.09 Fair CLR 10.5 6.8 78% 75.95 0.0
08 04:15 S 13 16.09 Fair CLR 11.2 6.7 74% 75.92 0.0
08 03:55 S 11 16.09 Fair CLR 11 6.6 75% 75.95 0.0
08 03:35 S 7 16.09 Fair CLR 12 6.5 69% 75.92 0.0
08 03:15 S 7 16.09 Fair CLR 11.4 6.1 70% 75.95 0.0
08 02:55 S 7 16.09 Fair CLR 11.9 6 67% 75.95 0.0
08 02:35 S 7 16.09 Fair CLR 12.3 5.8 65% 75.97 0.0
08 02:15 Calm 16.09 Fair CLR 12.1 5.7 65% 76 0.0
08 01:55 S 7 16.09 Fair CLR 11.8 5.7 66% 76 0.0
08 01:35 S 7 16.09 Fair CLR 11.7 5.7 67% 76.02 0.0
08 01:15 S 11 16.09 Fair CLR 12 5.8 66% 76.02 0.0
08 00:55 S 7 16.09 Fair CLR 11.6 5.7 22.8 10.5 67% 76.02 0.0
08 00:35 S 7 16.09 Fair CLR 11.5 5.7 68% 76.02 0.0
08 00:15 S 6 16.09 Fair CLR 11.8 6.1 68% 76.02 0.0
07 23:55 S 6 16.09 Fair CLR 10.9 5.8 71% 76.02 0.0
07 23:35 Calm 16.09 Fair CLR 12 5.5 65% 76.05 0.0
07 23:15 Calm 16.09 Fair CLR 12.6 5.7 63% 76.05 0.0
07 22:55 S 6 16.09 Fair CLR 11.5 6.1 70% 76.05 0.0
07 22:35 Calm 16.09 Fair CLR 12 6 67% 76.05 0.0
07 22:15 Calm 16.09 Fair CLR 11.6 6.1 69% 76.05 0.0
07 21:55 Calm 16.09 Fair CLR 14.4 5.7 56% 76.02 0.0
07 21:35 Calm 16.09 Fair CLR 15.2 5.7 53% 76.02 0.0
07 21:15 S 7 16.09 Fair CLR 15.5 5.5 52% 76.02 0.0
07 20:55 S 7 16.09 Fair CLR 16 5.5 50% 76.02 0.0
07 20:35 S 7 16.09 Fair CLR 17.8 4.9 43% 76 0.0
07 20:15 S 9 16.09 Fair CLR 19.8 3.8 35% 76 0.0
07 19:55 S 9 16.09 Fair CLR 20.8 3.2 31% 75.97 0.0
07 19:35 S 7 16.09 Fair CLR 21.8 2.2 28% 75.95 0.0
07 19:15 S 11 16.09 Fair CLR 22.1 3.2 29% 75.97 0.0
07 18:55 S 9 16.09 Fair CLR 22.8 1.3 23.4 18.6 24% 75.97 0.0
07 18:35 SW 9 16.09 Fair CLR 22.8 1 24% 76 0.0
07 18:15 S 6 16.09 Fair CLR 23 0.6 23% 76.02 0.0
07 17:55 Calm 16.09 Fair CLR 23.2 1.5 24% 76.02 0.0
07 17:35 W 13 16.09 Fair CLR 23.1 1.4 24% 76.02 0.0
07 17:15 SW 9 16.09 Fair CLR 23 2.1 25% 76.05 0.0
07 16:55 S 13 16.09 Fair CLR 23.1 2.3 26% 76.05 0.0
07 16:35 W 7 16.09 Fair CLR 22.4 2.2 27% 76.07 0.0
07 16:15 NW 9 16.09 Fair CLR 22.3 2.7 28% 76.07 0.0
07 15:55 NW 7 16.09 Fair CLR 22 2.6 28% 76.12 0.0
07 15:35 W 7 G 28 16.09 Fair CLR 21.7 1.4 26% 76.15 0.0
07 15:15 SW 6 16.09 Fair CLR 21.3 2.6 29% 76.17 0.0
07 14:55 W 11 G 26 16.09 Fair CLR 21 2.8 30% 76.2 0.0
07 14:35 SW 15 16.09 Fair CLR 20.6 2.8 31% 76.23 0.0
07 14:15 W 13 G 28 16.09 Fair CLR 20.6 2.6 31% 76.25 0.0
07 13:55 W 17 G 26 16.09 Fair CLR 20 2.8 32% 76.25 0.0
07 13:35 W 17 16.09 Fair CLR 19.7 3.7 35% 76.28 0.0
07 13:15 SW 17 G 26 16.09 Fair CLR 19.5 4.1 36% 76.33 0.0
07 12:55 W 9 16.09 Fair CLR 18.8 3.1 19 4.5 35% 76.33 0.0
07 12:35 SW 15 16.09 Fair CLR 18.5 3.1 36% 76.38 0.0
07 12:15 S 11 G 17 16.09 Fair CLR 18.2 3.3 37% 76.38 0.0
07 11:55 SW 13 G 26 16.09 Fair CLR 18.1 3.2 37% 76.43 0.0
07 11:35 SW 13 16.09 Fair CLR 17.8 2.8 37% 76.43 0.0
07 11:15 SW 13 16.09 Fair CLR 17.3 2.5 37% 76.45 0.0
Date Time (cdt) Wind (kph) Vis. (km) Weather Sky Cond. Air Dwpt Max. Min. Relative Humidity Wind Chill (°C) Heat Index (°C) altimeter (cm) sea level (mb) 1 hr 3 hr 6 hr
6 hour
Temperature (ºC) Pressure Precipitation (cm)